KTWF/TWF METAR and TAF weather

Enter ICAO airport designator
Station Type Date Time Source
KTWF METAR 2021/04/14 19:26 UTC NOAA

KTWF 141926Z 09012KT 9SM -SN FEW024 BKN028 OVC043 03/M03 A2993 RMK AO2 PK WND 09026/1857 SNB20 P0000 T00331028


Station Type Date Time Source
KTWF Decoded METAR 2021/04/14 19:26 UTC NOAA

JOSLIN FLD-MAGIC VALLEY REGL, ID, United States (KTWF) 42-29N 114-29W 1266M
Apr 14, 2021 - 03:26 PM EDT / 2021.04.14 1926 UTC
Wind: from the E (090 degrees) at 14 MPH (12 KT):0
Visibility: 9 mile(s):0
Sky conditions: overcast
Weather: light snow
Precipitation last hour: A trace
Temperature: 37.9 F (3.3 C)
Dew Point: 27.0 F (-2.8 C)
Relative Humidity: 64%
Pressure (altimeter): 29.93 in. Hg (1013 hPa)
ob: KTWF 141926Z 09012KT 9SM -SN FEW024 BKN028 OVC043 03/M03 A2993 RMK AO2 PK WND 09026/1857 SNB20 P0000 T00331028
cycle: 19

Station Type Date Time Source
KTWF TAF 2021/04/14 18:22 UTC NOAA

TAF KTWF 141720Z 1418/1518 07020G30KT P6SM VCSH OVC040
FM142200 19012G20KT 6SM -SNRA OVC030
FM150800 20006KT P6SM VCSH OVC020

Example: see airport list